createdAt,value
2022-12-27T00:01:12.921Z,4.53
2022-12-27T00:03:26.291Z,4.53
2022-12-27T00:05:39.553Z,4.50
2022-12-27T00:07:52.797Z,4.47
2022-12-27T00:10:07.094Z,4.47
2022-12-27T00:12:20.823Z,4.47
2022-12-27T00:14:35.173Z,4.45
2022-12-27T00:16:48.495Z,4.45
2022-12-27T00:19:03.164Z,4.42
2022-12-27T00:21:18.531Z,4.40
2022-12-27T00:23:34.662Z,4.36
2022-12-27T00:25:47.827Z,4.36
2022-12-27T00:28:03.940Z,4.35
2022-12-27T00:30:18.752Z,4.35
2022-12-27T00:32:32.613Z,4.36
2022-12-27T00:34:45.687Z,4.37
2022-12-27T00:36:59.060Z,4.42
2022-12-27T00:39:13.334Z,4.45
2022-12-27T00:41:27.222Z,4.49
2022-12-27T00:43:41.029Z,4.52
2022-12-27T00:45:54.569Z,4.54
2022-12-27T00:48:09.000Z,4.55
2022-12-27T00:50:21.771Z,4.55
2022-12-27T00:52:34.941Z,4.56
2022-12-27T00:54:49.210Z,4.57
2022-12-27T00:57:02.097Z,4.57
2022-12-27T00:59:16.898Z,4.56
2022-12-27T01:01:32.242Z,4.57
2022-12-27T01:03:47.081Z,4.60
2022-12-27T01:05:59.700Z,4.65
2022-12-27T01:08:12.778Z,4.69
2022-12-27T01:10:25.884Z,4.71
2022-12-27T01:12:40.217Z,4.72
2022-12-27T01:14:54.161Z,4.73
2022-12-27T01:17:06.981Z,4.76
2022-12-27T01:19:20.994Z,4.78
2022-12-27T01:21:34.678Z,4.82
2022-12-27T01:23:47.788Z,4.83
2022-12-27T01:26:09.092Z,4.85
2022-12-27T01:28:23.343Z,4.86
2022-12-27T01:30:39.002Z,4.87
2022-12-27T01:32:53.227Z,4.90
2022-12-27T01:35:07.503Z,4.94
2022-12-27T01:37:20.492Z,4.99
2022-12-27T01:39:33.060Z,5.03
2022-12-27T01:42:04.838Z,5.05
2022-12-27T01:44:52.907Z,5.11
2022-12-27T01:47:06.869Z,5.21
2022-12-27T01:49:20.797Z,5.24
2022-12-27T01:51:33.334Z,5.30
2022-12-27T01:53:50.079Z,5.38
2022-12-27T01:56:08.096Z,5.53
2022-12-27T01:58:27.143Z,5.64
2022-12-27T02:00:40.559Z,5.69
2022-12-27T02:02:54.673Z,5.73
2022-12-27T02:05:08.443Z,5.71
2022-12-27T02:07:23.488Z,5.67
2022-12-27T02:09:43.925Z,5.62
2022-12-27T02:12:02.897Z,5.55
2022-12-27T02:14:22.329Z,5.51
2022-12-27T02:16:39.988Z,5.47
2022-12-27T02:18:53.213Z,5.42
2022-12-27T02:21:29.518Z,5.37
2022-12-27T02:24:08.017Z,5.37
2022-12-27T02:26:37.276Z,5.41
2022-12-27T02:29:17.502Z,5.47
2022-12-27T02:31:39.778Z,5.50
2022-12-27T02:33:55.495Z,5.50
2022-12-27T02:36:13.810Z,5.53
2022-12-27T02:38:31.695Z,5.56
2022-12-27T02:41:04.344Z,5.60
2022-12-27T02:43:31.539Z,5.68
2022-12-27T02:46:06.585Z,5.72
2022-12-27T02:48:37.049Z,5.79
2022-12-27T02:51:29.116Z,5.87
2022-12-27T02:53:55.734Z,5.95
2022-12-27T02:56:39.525Z,6.00
2022-12-27T02:59:08.908Z,6.03
2022-12-27T03:01:48.004Z,6.04
2022-12-27T03:04:16.048Z,6.10
2022-12-27T03:06:51.642Z,6.10
2022-12-27T03:09:40.530Z,6.07
2022-12-27T03:12:15.205Z,6.04
2022-12-27T03:14:52.461Z,6.05
2022-12-27T03:17:11.463Z,6.07
2022-12-27T03:19:53.264Z,6.12
2022-12-27T03:22:24.549Z,6.19
2022-12-27T03:24:58.251Z,6.20
2022-12-27T03:27:19.134Z,6.22
2022-12-27T03:29:50.047Z,6.21
2022-12-27T03:32:25.089Z,6.20
2022-12-27T03:34:43.574Z,6.21
2022-12-27T03:37:15.747Z,6.21
2022-12-27T03:39:35.100Z,6.19
2022-12-27T03:42:08.389Z,6.17
2022-12-27T03:44:27.831Z,6.17
2022-12-27T03:46:44.517Z,6.17
2022-12-27T03:49:08.807Z,6.16
2022-12-27T03:51:25.997Z,6.19
2022-12-27T03:53:42.925Z,6.20
2022-12-27T03:55:57.380Z,6.21
2022-12-27T03:58:11.974Z,6.24
2022-12-27T04:00:25.847Z,6.28
2022-12-27T04:02:39.931Z,6.32
2022-12-27T04:04:58.630Z,6.36
2022-12-27T04:07:11.958Z,6.39
2022-12-27T04:09:43.762Z,6.41
2022-12-27T04:12:13.043Z,6.45
2022-12-27T04:14:42.601Z,6.46
2022-12-27T04:17:14.338Z,6.49
2022-12-27T04:19:43.719Z,6.50
2022-12-27T04:22:14.898Z,6.56
2022-12-27T04:24:46.682Z,6.58
2022-12-27T04:27:17.598Z,6.56
2022-12-27T04:29:46.925Z,6.54
2022-12-27T04:32:17.466Z,6.52
2022-12-27T04:34:45.817Z,6.50
2022-12-27T04:36:58.776Z,6.50
2022-12-27T04:39:11.745Z,6.54
2022-12-27T04:41:42.840Z,6.58
2022-12-27T04:44:13.335Z,6.59
2022-12-27T04:46:45.292Z,6.58
2022-12-27T04:49:14.502Z,6.56
2022-12-27T04:51:43.559Z,6.53
2022-12-27T04:54:13.700Z,6.49
2022-12-27T04:56:26.924Z,6.43
2022-12-27T04:59:01.678Z,6.36
2022-12-27T05:01:32.304Z,6.31
2022-12-27T05:03:48.286Z,6.28
2022-12-27T05:06:01.808Z,6.26
2022-12-27T05:08:33.950Z,6.23
2022-12-27T05:11:05.527Z,6.19
2022-12-27T05:13:35.876Z,6.15
2022-12-27T05:15:50.131Z,6.13
2022-12-27T05:18:03.461Z,6.11
2022-12-27T05:20:17.993Z,6.08
2022-12-27T05:22:48.610Z,6.04
2022-12-27T05:25:18.946Z,6.04
2022-12-27T05:27:31.827Z,6.04
2022-12-27T05:29:44.644Z,6.03
2022-12-27T05:31:58.560Z,6.03
2022-12-27T05:34:11.763Z,6.03
2022-12-27T05:36:25.650Z,6.05
2022-12-27T05:38:40.370Z,6.07
2022-12-27T05:40:54.132Z,6.11
2022-12-27T05:43:07.636Z,6.14
2022-12-27T05:45:22.193Z,6.19
2022-12-27T05:47:35.641Z,6.23
2022-12-27T05:49:48.702Z,6.21
2022-12-27T05:52:01.348Z,6.18
2022-12-27T05:54:15.043Z,6.14
2022-12-27T05:56:27.948Z,6.13
2022-12-27T05:58:41.635Z,6.11
2022-12-27T06:00:54.672Z,6.10
2022-12-27T06:03:08.919Z,6.11
2022-12-27T06:05:23.417Z,6.12
2022-12-27T06:07:37.887Z,6.14
2022-12-27T06:09:51.412Z,6.13
2022-12-27T06:12:04.803Z,6.17
2022-12-27T06:14:17.983Z,6.23
2022-12-27T06:16:30.979Z,6.30
2022-12-27T06:18:45.655Z,6.39
2022-12-27T06:21:03.734Z,6.44
2022-12-27T06:23:17.578Z,6.46
2022-12-27T06:25:31.749Z,6.50
2022-12-27T06:27:46.974Z,6.52
2022-12-27T06:30:00.151Z,6.53
2022-12-27T06:32:13.577Z,6.57
2022-12-27T06:34:27.349Z,6.67
2022-12-27T06:36:40.916Z,6.79
2022-12-27T06:38:54.667Z,6.92
2022-12-27T06:41:11.075Z,7.05
2022-12-27T06:43:24.931Z,7.23
2022-12-27T06:45:39.784Z,7.33
2022-12-27T06:47:52.991Z,7.33
2022-12-27T06:50:07.433Z,7.23
2022-12-27T06:52:20.050Z,7.25
2022-12-27T06:54:32.626Z,7.34
2022-12-27T06:56:46.519Z,7.41
2022-12-27T06:59:00.471Z,7.41
2022-12-27T07:01:18.152Z,7.33
2022-12-27T07:03:32.253Z,7.29
2022-12-27T07:05:45.450Z,7.24
2022-12-27T07:07:59.587Z,7.18
2022-12-27T07:10:14.488Z,7.13
2022-12-27T07:12:30.607Z,7.12
2022-12-27T07:14:47.941Z,7.08
2022-12-27T07:17:02.468Z,7.04
2022-12-27T07:19:16.620Z,7.00
2022-12-27T07:21:31.634Z,6.92
2022-12-27T07:23:44.662Z,6.86
2022-12-27T07:25:58.900Z,6.83
2022-12-27T07:28:12.661Z,6.79
2022-12-27T07:30:26.068Z,6.73
2022-12-27T07:32:39.850Z,6.68
2022-12-27T07:34:53.426Z,6.63
2022-12-27T07:37:07.578Z,6.62
2022-12-27T07:39:21.589Z,6.64
2022-12-27T07:41:34.398Z,6.66
2022-12-27T07:43:49.048Z,6.69
2022-12-27T07:46:09.595Z,6.73
2022-12-27T07:48:22.740Z,6.79
2022-12-27T07:50:35.832Z,6.82
2022-12-27T07:52:50.074Z,6.85
2022-12-27T07:55:03.479Z,6.87
2022-12-27T07:57:17.377Z,6.88
2022-12-27T07:59:31.488Z,6.90
2022-12-27T08:02:02.931Z,6.93
2022-12-27T08:04:17.768Z,6.96
2022-12-27T08:06:34.792Z,7.09
2022-12-27T08:08:49.623Z,7.19
2022-12-27T08:11:05.664Z,7.24
2022-12-27T08:13:20.075Z,7.26
2022-12-27T08:15:33.718Z,7.25
2022-12-27T08:17:47.480Z,7.22
2022-12-27T08:20:00.672Z,7.19
2022-12-27T08:22:14.484Z,7.17
2022-12-27T08:24:27.845Z,7.21
2022-12-27T08:26:41.713Z,7.30
2022-12-27T08:28:54.648Z,7.53
2022-12-27T08:31:08.822Z,7.59
2022-12-27T08:33:23.488Z,7.66
2022-12-27T08:35:56.303Z,7.80
2022-12-27T08:38:10.913Z,7.81
2022-12-27T08:40:24.240Z,7.70
2022-12-27T08:42:36.800Z,7.63
2022-12-27T08:44:49.531Z,7.58
2022-12-27T08:47:05.741Z,7.56
2022-12-27T08:49:19.006Z,7.58
2022-12-27T08:51:40.399Z,7.62
2022-12-27T08:53:54.601Z,7.67
2022-12-27T08:56:07.921Z,7.66
2022-12-27T08:58:21.701Z,7.62
2022-12-27T09:00:36.487Z,7.50
2022-12-27T09:02:50.042Z,7.32
2022-12-27T09:05:03.124Z,7.22
2022-12-27T09:07:16.558Z,7.14
2022-12-27T09:09:29.589Z,7.07
2022-12-27T09:11:45.158Z,7.01
2022-12-27T09:13:59.280Z,6.91
2022-12-27T09:16:18.748Z,6.85
2022-12-27T09:18:33.406Z,6.76
2022-12-27T09:20:47.193Z,6.66
2022-12-27T09:23:01.710Z,6.59
2022-12-27T09:25:15.522Z,6.51
2022-12-27T09:27:29.280Z,6.44
2022-12-27T09:29:48.127Z,6.40
2022-12-27T09:32:01.603Z,6.36
2022-12-27T09:34:15.867Z,6.33
2022-12-27T09:36:31.749Z,6.36
2022-12-27T09:38:46.224Z,6.36
2022-12-27T09:41:04.629Z,6.41
2022-12-27T09:43:27.181Z,6.58
2022-12-27T09:45:45.061Z,6.67
2022-12-27T09:48:04.915Z,6.73
2022-12-27T09:50:22.495Z,6.81
2022-12-27T09:52:40.161Z,6.86
2022-12-27T09:55:05.099Z,6.80
2022-12-27T09:57:26.112Z,6.69
2022-12-27T09:59:45.533Z,6.64
2022-12-27T10:01:58.645Z,6.61
2022-12-27T10:04:16.520Z,6.63
2022-12-27T10:06:53.882Z,6.67
2022-12-27T10:09:18.152Z,6.70
2022-12-27T10:11:39.674Z,6.72
2022-12-27T10:14:01.110Z,6.74
2022-12-27T10:16:26.204Z,6.82
2022-12-27T10:18:50.943Z,6.87
2022-12-27T10:21:11.728Z,6.95
2022-12-27T10:23:29.899Z,6.98
2022-12-27T10:25:48.258Z,7.13
2022-12-27T10:28:05.887Z,7.13
2022-12-27T10:30:25.116Z,7.06
2022-12-27T10:32:38.416Z,7.03
2022-12-27T10:34:54.223Z,7.02
2022-12-27T10:37:07.697Z,6.97
2022-12-27T10:39:29.205Z,6.90
2022-12-27T10:41:54.807Z,6.84
2022-12-27T10:44:13.374Z,6.77
2022-12-27T10:46:33.105Z,6.73
2022-12-27T10:49:20.021Z,6.69
2022-12-27T10:51:38.629Z,6.64
2022-12-27T10:54:05.971Z,6.62
2022-12-27T10:56:29.741Z,6.63
2022-12-27T10:58:46.026Z,6.65
2022-12-27T11:01:03.141Z,6.68
2022-12-27T11:03:27.223Z,6.76
2022-12-27T11:05:42.930Z,6.87
2022-12-27T11:07:56.613Z,7.01
2022-12-27T11:10:18.784Z,7.18
2022-12-27T11:12:34.033Z,7.38
2022-12-27T11:15:00.449Z,7.58
2022-12-27T11:17:19.514Z,7.76
2022-12-27T11:19:34.294Z,7.92
2022-12-27T11:21:48.637Z,8.07
2022-12-27T11:24:04.139Z,8.13
2022-12-27T11:26:26.635Z,8.12
2022-12-27T11:28:42.273Z,8.06
2022-12-27T11:31:00.794Z,8.01
2022-12-27T11:33:27.675Z,7.99
2022-12-27T11:35:52.300Z,8.03
2022-12-27T11:38:05.837Z,8.10
2022-12-27T11:40:31.640Z,8.21
2022-12-27T11:42:49.048Z,8.34
2022-12-27T11:45:14.540Z,8.41
2022-12-27T11:47:36.213Z,8.35
2022-12-27T11:49:54.158Z,8.24
2022-12-27T11:52:38.133Z,8.07
2022-12-27T11:55:30.606Z,7.94
2022-12-27T11:58:11.501Z,7.86
2022-12-27T12:00:27.888Z,7.78
2022-12-27T12:03:01.007Z,7.72
2022-12-27T12:05:56.673Z,7.63
2022-12-27T12:08:24.713Z,7.55
2022-12-27T12:10:49.101Z,7.50
2022-12-27T12:13:39.304Z,7.45
2022-12-27T12:16:23.703Z,7.42
2022-12-27T12:18:53.021Z,7.37
2022-12-27T12:21:36.772Z,7.36
2022-12-27T12:24:12.196Z,7.39
2022-12-27T12:26:27.151Z,7.46
2022-12-27T12:29:06.609Z,7.49
2022-12-27T12:31:34.134Z,7.52
2022-12-27T12:34:09.421Z,7.58
2022-12-27T12:36:43.947Z,7.63
2022-12-27T12:39:13.083Z,7.71
2022-12-27T12:42:13.896Z,7.81
2022-12-27T12:44:56.510Z,7.86
2022-12-27T12:47:17.674Z,7.94
2022-12-27T12:49:52.539Z,8.07
2022-12-27T12:52:36.516Z,8.20
2022-12-27T12:55:17.544Z,8.33
2022-12-27T12:57:46.542Z,8.48
2022-12-27T13:00:13.751Z,8.54
2022-12-27T13:02:51.489Z,8.58
2022-12-27T13:05:15.966Z,8.58
2022-12-27T13:07:42.408Z,8.53
2022-12-27T13:10:19.067Z,8.49
2022-12-27T13:12:41.111Z,8.49
2022-12-27T13:15:24.551Z,8.50
2022-12-27T13:17:45.744Z,8.50
2022-12-27T13:20:19.210Z,8.50
2022-12-27T13:22:44.470Z,8.51
2022-12-27T13:25:13.282Z,8.54
2022-12-27T13:27:36.374Z,8.61
2022-12-27T13:30:07.048Z,8.69
2022-12-27T13:32:31.229Z,8.84
2022-12-27T13:34:53.095Z,9.07
2022-12-27T13:37:23.111Z,9.26
2022-12-27T13:39:49.664Z,9.50
2022-12-27T13:42:21.089Z,9.68
2022-12-27T13:44:54.230Z,9.82
2022-12-27T13:47:32.402Z,9.96
2022-12-27T13:50:03.502Z,10.10
2022-12-27T13:52:36.419Z,10.19
2022-12-27T13:55:36.068Z,10.25
2022-12-27T13:58:16.838Z,10.31
2022-12-27T14:00:39.208Z,10.34
2022-12-27T14:03:25.039Z,10.36
2022-12-27T14:06:18.754Z,10.41
2022-12-27T14:08:52.600Z,10.47
2022-12-27T14:11:06.276Z,10.51
2022-12-27T14:13:25.039Z,10.58
2022-12-27T14:16:05.988Z,10.64
2022-12-27T14:18:36.588Z,10.69
2022-12-27T14:21:14.102Z,10.73
2022-12-27T14:23:49.197Z,10.83
2022-12-27T14:26:34.412Z,10.88
2022-12-27T14:29:10.491Z,10.96
2022-12-27T14:31:49.879Z,11.03
2022-12-27T14:34:59.281Z,11.05
2022-12-27T14:37:45.487Z,11.07
2022-12-27T14:40:39.442Z,11.10
2022-12-27T14:43:24.652Z,11.15
2022-12-27T14:59:21.496Z,11.56
2022-12-27T15:01:48.758Z,11.55
2022-12-27T15:04:31.593Z,11.49
2022-12-27T15:07:21.421Z,11.43
2022-12-27T15:09:43.166Z,11.41
2022-12-27T15:12:07.799Z,11.38
2022-12-27T15:14:42.191Z,11.35
2022-12-27T15:17:04.876Z,11.33
2022-12-27T15:19:53.842Z,11.33
2022-12-27T15:22:18.961Z,11.30
2022-12-27T15:24:42.782Z,11.28
2022-12-27T15:27:01.120Z,11.25
2022-12-27T15:29:31.036Z,11.19
2022-12-27T15:31:53.474Z,11.17
2022-12-27T15:34:24.508Z,11.13
2022-12-27T15:36:45.681Z,11.08
2022-12-27T15:38:59.808Z,11.02
2022-12-27T15:41:27.343Z,11.00
2022-12-27T15:44:06.485Z,10.94
2022-12-27T15:46:37.685Z,10.88
2022-12-27T15:49:17.050Z,10.83
2022-12-27T15:51:39.096Z,10.78
2022-12-27T15:54:35.428Z,10.76
2022-12-27T15:57:23.317Z,10.73
2022-12-27T15:59:58.585Z,10.70
2022-12-27T16:02:37.877Z,10.67
2022-12-27T16:04:57.741Z,10.66
2022-12-27T16:07:44.160Z,10.65
2022-12-27T16:09:57.210Z,10.68
2022-12-27T16:12:14.632Z,10.68
2022-12-27T16:14:35.365Z,10.66
2022-12-27T16:16:57.690Z,10.65
2022-12-27T16:19:26.521Z,10.64
2022-12-27T16:21:49.830Z,10.61
2022-12-27T16:24:09.083Z,10.59
2022-12-27T16:26:25.673Z,10.57
2022-12-27T16:28:40.453Z,10.54
2022-12-27T16:30:55.825Z,10.51
2022-12-27T16:33:08.883Z,10.48
2022-12-27T16:35:22.267Z,10.47
2022-12-27T16:37:44.935Z,10.48
2022-12-27T16:40:17.880Z,10.48
2022-12-27T16:42:59.677Z,10.46
2022-12-27T16:45:38.925Z,10.45
2022-12-27T16:48:14.176Z,10.44
2022-12-27T16:50:44.575Z,10.45
2022-12-27T16:53:12.023Z,10.45
2022-12-27T16:56:01.851Z,10.45
2022-12-27T16:58:39.986Z,10.44
2022-12-27T17:00:54.109Z,10.40
2022-12-27T17:03:33.392Z,10.38
2022-12-27T17:06:21.598Z,10.34
2022-12-27T17:08:26.841Z,10.32
2022-12-27T17:11:33.819Z,10.30
2022-12-27T17:15:14.708Z,10.26
2022-12-27T17:17:28.656Z,10.24
2022-12-27T17:19:52.822Z,10.22
2022-12-27T17:22:09.617Z,10.20
2022-12-27T17:24:24.458Z,10.18
2022-12-27T17:27:08.705Z,10.16
2022-12-27T17:29:45.771Z,10.11
2022-12-27T17:32:05.214Z,10.07
2022-12-27T17:34:25.567Z,10.02
2022-12-27T17:36:54.365Z,9.98
2022-12-27T17:39:21.723Z,9.93
2022-12-27T17:42:03.527Z,9.88
2022-12-27T17:44:40.957Z,9.84
2022-12-27T17:46:58.243Z,9.81
2022-12-27T17:49:13.209Z,9.80
2022-12-27T17:51:28.991Z,9.79
2022-12-27T17:54:07.542Z,9.76
2022-12-27T17:56:39.418Z,9.76
2022-12-27T17:58:58.050Z,9.75
2022-12-27T18:01:12.784Z,9.74
2022-12-27T18:03:27.524Z,9.74
2022-12-27T18:05:44.306Z,9.72
2022-12-27T18:08:08.488Z,9.69
2022-12-27T18:10:27.326Z,9.68
2022-12-27T18:12:43.283Z,9.66
2022-12-27T18:15:02.320Z,9.64
2022-12-27T18:17:29.401Z,9.61
2022-12-27T18:19:42.947Z,9.58
2022-12-27T18:34:34.895Z,9.81
2022-12-27T18:36:54.907Z,9.75
2022-12-27T18:39:11.341Z,9.62
2022-12-27T18:41:26.934Z,9.52
2022-12-27T18:43:45.321Z,9.43
2022-12-27T18:46:00.765Z,9.33
2022-12-27T18:48:16.169Z,9.24
2022-12-27T18:50:32.827Z,9.16
2022-12-27T18:52:51.267Z,9.09
2022-12-27T18:55:22.960Z,9.02
2022-12-27T18:57:46.666Z,8.94
2022-12-27T19:00:17.124Z,8.88
2022-12-27T19:02:41.519Z,8.83
2022-12-27T19:05:26.897Z,8.80
2022-12-27T19:07:40.714Z,8.78
2022-12-27T19:10:03.889Z,8.76
2022-12-27T19:12:38.605Z,8.74
2022-12-27T19:14:52.451Z,8.71
2022-12-27T19:17:11.197Z,8.71
2022-12-27T19:19:29.513Z,8.70
2022-12-27T19:21:44.687Z,8.68
2022-12-27T19:23:58.872Z,8.67
2022-12-27T19:26:32.679Z,8.66
2022-12-27T19:28:47.318Z,8.65
2022-12-27T19:31:22.012Z,8.64
2022-12-27T19:33:38.301Z,8.62
2022-12-27T19:35:52.043Z,8.60
2022-12-27T19:38:07.179Z,8.59
2022-12-27T19:40:22.444Z,8.57
2022-12-27T19:42:37.700Z,8.55
2022-12-27T19:44:51.946Z,8.55
2022-12-27T19:47:06.478Z,8.54
2022-12-27T19:51:54.966Z,8.50
2022-12-27T19:54:11.866Z,8.48
2022-12-27T19:56:25.874Z,8.47
2022-12-27T19:58:38.974Z,8.46
2022-12-27T20:00:52.380Z,8.44
2022-12-27T20:03:05.573Z,8.42
2022-12-27T20:06:11.211Z,8.41
2022-12-27T20:07:53.942Z,8.40
2022-12-27T20:10:09.085Z,8.38
2022-12-27T20:12:22.498Z,8.35
2022-12-27T20:14:35.783Z,8.34
2022-12-27T20:16:50.376Z,8.32
2022-12-27T20:19:04.048Z,8.30
2022-12-27T20:21:19.846Z,8.29
2022-12-27T20:23:33.347Z,8.27
2022-12-27T20:25:48.991Z,8.27
2022-12-27T20:28:02.367Z,8.27
2022-12-27T20:30:18.163Z,8.26
2022-12-27T20:32:31.736Z,8.26
2022-12-27T20:34:45.611Z,8.25
2022-12-27T20:37:01.080Z,8.23
2022-12-27T20:39:15.358Z,8.21
2022-12-27T20:41:29.615Z,8.19
2022-12-27T20:43:43.837Z,8.18
2022-12-27T20:45:57.232Z,8.17
2022-12-27T20:48:10.703Z,8.18
2022-12-27T20:50:24.769Z,8.18
2022-12-27T20:52:39.657Z,8.17
2022-12-27T20:54:52.986Z,8.17
2022-12-27T20:57:07.243Z,8.16
2022-12-27T20:59:21.523Z,8.16
2022-12-27T21:01:35.134Z,8.14
2022-12-27T21:03:50.631Z,8.15
2022-12-27T21:06:08.454Z,8.15
2022-12-27T21:08:21.844Z,8.15
2022-12-27T21:10:36.104Z,8.14
2022-12-27T21:12:50.442Z,8.14
2022-12-27T21:15:05.076Z,8.15
2022-12-27T21:17:18.477Z,8.16
2022-12-27T21:19:32.764Z,8.15
2022-12-27T21:21:45.926Z,8.14
2022-12-27T21:24:00.337Z,8.12
2022-12-27T21:26:16.416Z,8.13
2022-12-27T21:28:29.702Z,8.10
2022-12-27T21:30:43.192Z,8.09
2022-12-27T21:32:56.405Z,8.07
2022-12-27T21:35:09.956Z,8.06
2022-12-27T21:37:23.637Z,8.03
2022-12-27T21:39:37.258Z,8.01
2022-12-27T21:41:50.446Z,8.00
2022-12-27T21:44:04.114Z,7.98
2022-12-27T21:46:20.801Z,7.97
2022-12-27T21:48:34.347Z,7.96
2022-12-27T21:50:47.856Z,7.96
2022-12-27T21:53:01.043Z,7.95
2022-12-27T21:55:15.456Z,7.94
2022-12-27T21:57:28.938Z,7.90
2022-12-27T21:59:43.557Z,7.88
2022-12-27T22:01:56.786Z,7.86
2022-12-27T22:04:10.550Z,7.86
2022-12-27T22:06:27.881Z,7.84
2022-12-27T22:08:41.049Z,7.84
2022-12-27T22:11:02.149Z,7.82
2022-12-27T22:13:15.961Z,7.80
2022-12-27T22:15:30.057Z,7.79
2022-12-27T22:17:44.433Z,7.79
2022-12-27T22:19:57.644Z,7.78
2022-12-27T22:22:11.159Z,7.75
2022-12-27T22:24:25.003Z,7.73
2022-12-27T22:26:40.585Z,7.71
2022-12-27T22:28:54.590Z,7.70
2022-12-27T22:31:11.223Z,7.70
2022-12-27T22:33:26.402Z,7.70
2022-12-27T22:35:40.316Z,7.69
2022-12-27T22:37:53.966Z,7.68
2022-12-27T22:40:07.638Z,7.69
2022-12-27T22:42:41.637Z,7.68
2022-12-27T22:44:54.580Z,7.68
2022-12-27T22:47:25.934Z,7.68
2022-12-27T22:49:37.288Z,7.70
2022-12-27T22:51:50.573Z,7.69
2022-12-27T22:54:04.745Z,7.67
2022-12-27T22:56:22.929Z,7.65
2022-12-27T22:58:37.292Z,7.67
2022-12-27T23:00:50.710Z,7.64
2022-12-27T23:03:04.094Z,7.63
2022-12-27T23:05:17.444Z,7.63
2022-12-27T23:08:05.463Z,7.63
2022-12-27T23:10:05.849Z,7.61
2022-12-27T23:12:19.260Z,7.61
2022-12-27T23:14:32.483Z,7.61
2022-12-27T23:16:48.577Z,7.60
2022-12-27T23:19:02.656Z,7.60
2022-12-27T23:21:24.014Z,7.58
2022-12-27T23:23:39.905Z,7.55
2022-12-27T23:25:54.577Z,7.53
2022-12-27T23:28:10.378Z,7.49
2022-12-27T23:30:24.079Z,7.48
2022-12-27T23:32:37.727Z,7.45
2022-12-27T23:34:53.609Z,7.42
2022-12-27T23:37:07.802Z,7.40
2022-12-27T23:39:22.173Z,7.38
2022-12-27T23:41:38.137Z,7.36
2022-12-27T23:43:53.146Z,7.33
2022-12-27T23:46:14.535Z,7.31
2022-12-27T23:48:28.468Z,7.30
2022-12-27T23:50:42.310Z,7.30
2022-12-27T23:52:56.527Z,7.29
2022-12-27T23:55:10.502Z,7.28
2022-12-27T23:57:23.859Z,7.26
2022-12-27T23:59:37.331Z,7.25
